Time;durP1;ratioP1;P1;durP2;ratioP2;P2;SDS_P1;SDS_P2;PMS_P1;PMS_P2;Temp;Humidity;BMP_temperature;BMP_pressure;BME280_temperature;BME280_humidity;BME280_pressure;Samples;Min_cycle;Max_cycle;Signal;HPM_P1;HPM_P2
2022/11/16 00:02:11;;;;;;;11.98;7.70;;;10.70;99.90;;;;;;4909756;29;20170;-60
2022/11/16 00:04:37;;;;;;;10.45;7.80;;;10.70;99.90;;;;;;4909772;29;20055;-59
2022/11/16 00:07:03;;;;;;;11.07;8.13;;;10.70;99.90;;;;;;4911473;29;20471;-60
2022/11/16 00:09:30;;;;;;;11.98;8.43;;;10.70;99.90;;;;;;4892671;29;20036;-59
2022/11/16 00:12:00;;;;;;;10.55;8.75;;;10.70;99.90;;;;;;4910606;29;20079;-60
2022/11/16 00:14:29;;;;;;;12.05;9.10;;;10.70;99.90;;;;;;4895776;29;20051;-60
2022/11/16 00:16:55;;;;;;;11.10;9.45;;;10.70;99.90;;;;;;4911132;29;20424;-60
2022/11/16 00:19:24;;;;;;;12.63;8.75;;;10.70;99.90;;;;;;4893349;29;20059;-59
2022/11/16 00:21:50;;;;;;;11.60;9.35;;;10.70;99.90;;;;;;4894031;29;20051;-61
2022/11/16 00:24:18;;;;;;;11.68;9.50;;;10.70;99.90;;;;;;4909945;29;20110;-59
2022/11/16 00:26:45;;;;;;;10.65;9.02;;;10.70;99.90;;;;;;4908969;29;20103;-61
2022/11/16 00:29:15;;;;;;;10.60;9.20;;;10.70;99.90;;;;;;4912099;29;20052;-59
2022/11/16 00:31:41;;;;;;;13.13;9.48;;;10.70;99.90;;;;;;4908769;29;21180;-61
2022/11/16 00:34:07;;;;;;;13.30;10.43;;;10.70;99.90;;;;;;4909831;29;20055;-60
2022/11/16 00:36:32;;;;;;;11.30;9.60;;;10.70;99.90;;;;;;4904662;29;20124;-60
2022/11/16 00:38:58;;;;;;;13.57;10.20;;;10.70;99.90;;;;;;4895126;29;20075;-61
2022/11/16 00:41:24;;;;;;;12.52;9.82;;;10.70;99.90;;;;;;4895038;29;20086;-60
2022/11/16 00:43:50;;;;;;;12.60;9.55;;;10.70;99.90;;;;;;4909678;29;20044;-60
2022/11/16 00:46:15;;;;;;;13.88;9.93;;;10.70;99.90;;;;;;4913338;29;20100;-61
2022/11/16 00:48:41;;;;;;;11.77;10.50;;;10.70;99.90;;;;;;4913599;29;20132;-59
2022/11/16 00:51:07;;;;;;;14.35;10.55;;;10.70;99.90;;;;;;4916900;29;20399;-60
2022/11/16 00:53:34;;;;;;;13.98;10.90;;;10.70;99.90;;;;;;4912706;29;20534;-60
2022/11/16 00:56:00;;;;;;;16.33;10.45;;;10.70;99.90;;;;;;4914653;29;20059;-60
2022/11/16 00:58:26;;;;;;;17.23;11.02;;;10.70;99.90;;;;;;4917249;29;20080;-60
2022/11/16 01:00:51;;;;;;;13.60;10.68;;;10.70;99.90;;;;;;4916898;29;20056;-60
2022/11/16 01:03:17;;;;;;;15.32;11.15;;;10.70;99.90;;;;;;4916541;29;20040;-60
2022/11/16 01:05:43;;;;;;;13.52;10.50;;;10.70;99.90;;;;;;4897747;29;20044;-60
2022/11/16 01:08:09;;;;;;;13.77;11.45;;;10.70;99.90;;;;;;4917359;29;20047;-61
2022/11/16 01:10:38;;;;;;;14.73;11.25;;;10.70;99.90;;;;;;4915275;29;20051;-60
2022/11/16 01:13:03;;;;;;;16.33;11.80;;;10.70;99.90;;;;;;4915894;29;20513;-60
2022/11/16 01:15:29;;;;;;;16.55;11.20;;;10.70;99.90;;;;;;4917409;29;20051;-60
2022/11/16 01:17:56;;;;;;;14.07;11.05;;;10.70;99.90;;;;;;4916675;29;20058;-60
2022/11/16 01:20:24;;;;;;;14.65;11.23;;;10.70;99.90;;;;;;4914876;29;20067;-60
2022/11/16 01:22:50;;;;;;;15.07;11.05;;;10.70;99.90;;;;;;4917214;29;20107;-60
2022/11/16 01:25:16;;;;;;;13.95;11.18;;;10.70;99.90;;;;;;4915473;29;20040;-60
2022/11/16 01:27:42;;;;;;;15.68;11.13;;;10.70;99.90;;;;;;4915808;29;20714;-59
2022/11/16 01:30:10;;;;;;;16.02;10.85;;;10.70;99.90;;;;;;4907996;29;20389;-61
2022/11/16 01:32:36;;;;;;;15.65;11.25;;;10.70;99.90;;;;;;4915064;29;20036;-60
2022/11/16 01:35:02;;;;;;;12.77;10.55;;;10.70;99.90;;;;;;4917084;29;20137;-60
2022/11/16 01:37:29;;;;;;;17.95;11.55;;;10.70;99.90;;;;;;4914068;29;20052;-61
2022/11/16 01:39:54;;;;;;;13.88;10.63;;;10.70;99.90;;;;;;4913738;29;20382;-60
2022/11/16 01:42:29;;;;;;;14.52;10.70;;;10.70;99.90;;;;;;4915526;29;20044;-60
2022/11/16 01:45:05;;;;;;;15.02;10.52;;;10.70;99.90;;;;;;4916175;29;20535;-60
2022/11/16 01:47:31;;;;;;;16.02;10.70;;;10.70;99.90;;;;;;4916308;29;20051;-60
2022/11/16 01:50:14;;;;;;;13.85;10.43;;;10.70;99.90;;;;;;4902357;29;20103;-60
2022/11/16 01:52:47;;;;;;;16.60;10.98;;;10.70;99.90;;;;;;4917101;29;20044;-59
2022/11/16 01:55:13;;;;;;;;;;;10.70;99.90;;;;;;4914444;29;21478;-60
2022/11/16 01:57:41;;;;;;;13.55;9.57;;;10.70;99.90;;;;;;4911691;29;19927;-60
2022/11/16 02:00:10;;;;;;;14.30;10.55;;;10.70;99.90;;;;;;4915039;29;20142;-60
2022/11/16 02:02:35;;;;;;;13.13;10.02;;;10.70;99.90;;;;;;4888201;29;20589;-60
2022/11/16 02:05:02;;;;;;;11.90;9.20;;;10.80;99.90;;;;;;4912283;29;20040;-61
2022/11/16 02:10:57;;;;;;;12.70;9.45;;;10.80;99.90;;;;;;4896214;29;20048;-60
2022/11/16 02:14:08;;;;;;;14.52;9.70;;;10.80;99.90;;;;;;4911847;29;20815;-61
2022/11/16 02:16:51;;;;;;;12.77;9.63;;;10.80;99.90;;;;;;4912502;29;20136;-60
2022/11/16 02:19:48;;;;;;;11.98;9.43;;;10.80;99.90;;;;;;4914492;29;20048;-61
2022/11/16 02:22:36;;;;;;;14.63;9.75;;;10.80;99.90;;;;;;4903743;29;20043;-60
2022/11/16 02:25:27;;;;;;;13.43;9.50;;;10.80;99.90;;;;;;4911753;29;20050;-60
2022/11/16 02:27:59;;;;;;;15.43;9.95;;;10.80;99.90;;;;;;4933107;29;20834;-59
2022/11/16 02:30:25;;;;;;;12.82;9.82;;;10.80;99.90;;;;;;4934409;28;20402;-61
2022/11/16 02:32:59;;;;;;;13.20;9.57;;;10.80;99.90;;;;;;4933192;29;20056;-60
2022/11/16 02:35:34;;;;;;;13.73;9.82;;;10.80;99.90;;;;;;4932139;29;20581;-61
2022/11/16 02:38:08;;;;;;;14.00;9.27;;;10.80;99.90;;;;;;4930758;29;20095;-60
2022/11/16 02:40:36;;;;;;;13.05;9.73;;;10.80;99.90;;;;;;4933907;29;20504;-60
2022/11/16 02:43:09;;;;;;;14.25;8.98;;;10.80;99.90;;;;;;4936030;28;20715;-60
2022/11/16 02:45:40;;;;;;;11.68;8.95;;;10.80;99.90;;;;;;4932065;29;20149;-60
2022/11/16 02:48:29;;;;;;;11.73;9.27;;;10.80;99.90;;;;;;4941602;29;20138;-59
2022/11/16 02:50:56;;;;;;;13.98;8.88;;;10.80;99.90;;;;;;4935758;29;20078;-61
2022/11/16 02:53:23;;;;;;;13.50;9.57;;;10.80;99.90;;;;;;4938176;29;20057;-61
2022/11/16 02:55:49;;;;;;;13.30;8.75;;;10.80;99.90;;;;;;4934825;29;20059;-61
2022/11/16 02:58:20;;;;;;;10.82;8.70;;;10.80;99.90;;;;;;4934506;29;20043;-60
2022/11/16 03:01:15;;;;;;;11.90;8.77;;;10.80;99.90;;;;;;4920843;29;20055;-61
2022/11/16 03:03:52;;;;;;;13.07;8.95;;;10.80;99.90;;;;;;4930480;29;20040;-60
2022/11/16 03:06:33;;;;;;;16.33;8.93;;;10.80;99.90;;;;;;4936834;28;20106;-59
2022/11/16 03:09:01;;;;;;;12.05;8.63;;;10.80;99.90;;;;;;4937322;29;20454;-61
2022/11/16 03:14:17;;;;;;;13.85;9.32;;;10.80;99.90;;;;;;4931771;29;20463;-60
2022/11/16 03:16:48;;;;;;;11.02;8.77;;;10.80;99.90;;;;;;4931686;28;20054;-61
2022/11/16 03:19:19;;;;;;;15.68;9.25;;;10.80;99.90;;;;;;4935847;29;20106;-60
2022/11/16 03:21:59;;;;;;;12.63;9.00;;;10.90;99.90;;;;;;4933224;28;20119;-61
2022/11/16 03:24:25;;;;;;;10.38;8.35;;;10.90;99.90;;;;;;4938108;29;20051;-60
2022/11/16 03:27:15;;;;;;;12.10;8.93;;;10.80;99.90;;;;;;4921099;28;20425;-60
2022/11/16 03:30:20;;;;;;;12.30;9.00;;;10.80;99.90;;;;;;4914139;29;20043;-60
2022/11/16 03:33:07;;;;;;;11.75;9.38;;;10.90;99.90;;;;;;4903980;29;20047;-61
2022/11/16 03:35:54;;;;;;;11.27;8.90;;;10.80;99.90;;;;;;4904499;29;20102;-61
2022/11/16 03:38:23;;;;;;;12.85;8.52;;;10.80;99.90;;;;;;4917248;29;20044;-61
2022/11/16 03:40:50;;;;;;;11.85;8.75;;;10.80;99.90;;;;;;4916015;29;20082;-61
2022/11/16 03:43:19;;;;;;;11.55;8.93;;;10.90;99.90;;;;;;4909975;29;20076;-60
2022/11/16 03:45:45;;;;;;;12.02;9.05;;;10.80;99.90;;;;;;4914430;29;20047;-60
2022/11/16 03:48:12;;;;;;;10.75;8.63;;;10.80;99.90;;;;;;4905557;29;20078;-61
2022/11/16 03:50:39;;;;;;;12.50;9.20;;;10.80;99.90;;;;;;4917848;29;20055;-60
2022/11/16 03:53:05;;;;;;;13.68;9.45;;;10.80;99.90;;;;;;4914513;29;20047;-61
2022/11/16 03:55:31;;;;;;;12.60;9.07;;;10.80;99.90;;;;;;4916038;29;20059;-61
2022/11/16 03:57:57;;;;;;;12.73;9.68;;;10.80;99.90;;;;;;4915632;29;20554;-61
2022/11/16 04:00:22;;;;;;;11.30;8.85;;;10.80;99.90;;;;;;4901167;29;20399;-60
2022/11/16 04:02:48;;;;;;;11.00;9.00;;;10.80;99.90;;;;;;4915179;29;20048;-61
2022/11/16 04:24:40;;;;;;;14.65;9.68;;;10.80;99.90;;;;;;4921540;29;20056;-60
2022/11/16 04:29:55;;;;;;;12.43;9.25;;;10.80;99.90;;;;;;4949626;28;20083;-61
2022/11/16 04:37:53;;;;;;;12.48;9.50;;;10.80;99.90;;;;;;4936829;29;20043;-60
2022/11/16 04:40:21;;;;;;;11.63;9.35;;;10.70;99.90;;;;;;4937479;28;20043;-61
2022/11/16 04:42:52;;;;;;;12.43;9.82;;;10.70;99.90;;;;;;4937826;29;20047;-61
2022/11/16 04:48:03;;;;;;;12.77;10.00;;;10.70;99.90;;;;;;4934255;29;20036;-61
2022/11/16 04:50:29;;;;;;;12.77;9.85;;;10.70;99.90;;;;;;4939257;29;20047;-60
2022/11/16 04:52:55;;;;;;;14.32;9.95;;;10.80;99.90;;;;;;4932403;29;20086;-60
2022/11/16 04:55:21;;;;;;;11.73;9.65;;;10.80;99.90;;;;;;4936192;29;20130;-60
2022/11/16 04:57:46;;;;;;;15.45;10.23;;;10.80;99.90;;;;;;4937965;28;20700;-60
2022/11/16 05:00:13;;;;;;;11.80;9.43;;;10.70;99.90;;;;;;4937273;28;20051;-60
2022/11/16 05:02:39;;;;;;;12.63;10.25;;;10.70;99.90;;;;;;4937272;28;20083;-61
2022/11/16 05:05:05;;;;;;;13.30;10.73;;;10.70;99.90;;;;;;4935610;29;20165;-61
2022/11/16 05:07:31;;;;;;;15.25;10.25;;;10.70;99.90;;;;;;4938756;29;20105;-61
2022/11/16 05:09:56;;;;;;;16.15;11.10;;;10.70;99.90;;;;;;4940223;29;20051;-61
2022/11/16 05:12:24;;;;;;;12.38;10.18;;;10.70;99.90;;;;;;4933291;29;20046;-61
2022/11/16 05:14:50;;;;;;;13.30;10.80;;;10.70;99.90;;;;;;4932949;29;20788;-60
2022/11/16 05:17:17;;;;;;;16.02;11.32;;;10.70;99.90;;;;;;4932319;28;20151;-61
2022/11/16 05:22:27;;;;;;;13.95;10.82;;;10.70;99.90;;;;;;4933784;29;20055;-61
2022/11/16 05:24:53;;;;;;;15.98;11.30;;;10.70;99.90;;;;;;4932541;29;20077;-60
2022/11/16 05:27:20;;;;;;;15.27;11.20;;;10.70;99.90;;;;;;4917517;29;20070;-60
2022/11/16 05:29:48;;;;;;;14.65;11.43;;;10.70;99.90;;;;;;4890222;29;20566;-61
2022/11/16 05:32:14;;;;;;;13.60;11.32;;;10.70;99.90;;;;;;4914793;29;20052;-61
2022/11/16 05:34:41;;;;;;;13.57;11.10;;;10.70;99.90;;;;;;4914745;29;20135;-60
2022/11/16 05:37:06;;;;;;;13.90;11.13;;;10.70;99.90;;;;;;4901005;29;20062;-61
2022/11/16 05:39:32;;;;;;;16.65;11.23;;;10.70;99.90;;;;;;4904531;29;20825;-61
2022/11/16 05:41:58;;;;;;;11.88;10.23;;;10.70;99.90;;;;;;4887289;29;20063;-61
2022/11/16 05:44:24;;;;;;;14.38;10.93;;;10.70;99.90;;;;;;4898190;29;20493;-60
2022/11/16 05:46:50;;;;;;;14.95;11.40;;;10.70;99.90;;;;;;4915786;29;20118;-60
2022/11/16 05:49:16;;;;;;;16.23;12.10;;;10.70;99.90;;;;;;4914209;29;20040;-61
2022/11/16 05:51:44;;;;;;;14.43;11.38;;;10.70;99.90;;;;;;4906194;29;20051;-61
2022/11/16 05:54:20;;;;;;;16.17;12.00;;;10.70;99.90;;;;;;4915252;29;20047;-61
2022/11/16 05:56:47;;;;;;;15.07;11.57;;;10.70;99.90;;;;;;4914137;29;20054;-59
2022/11/16 05:59:15;;;;;;;13.25;11.68;;;10.70;99.90;;;;;;4911999;29;20051;-60
2022/11/16 06:01:41;;;;;;;14.10;11.75;;;10.70;99.90;;;;;;4911855;29;20052;-61
2022/11/16 06:04:07;;;;;;;14.98;11.65;;;10.70;99.90;;;;;;4912688;29;20043;-60
2022/11/16 06:06:33;;;;;;;14.68;11.25;;;10.70;99.90;;;;;;4909886;29;20090;-60
2022/11/16 06:08:59;;;;;;;15.40;11.60;;;10.70;99.90;;;;;;4914686;29;20127;-60
2022/11/16 06:11:25;;;;;;;16.33;11.85;;;10.70;99.90;;;;;;4913866;29;20052;-60
2022/11/16 06:13:51;;;;;;;15.18;12.10;;;10.70;99.90;;;;;;4913380;29;20050;-61
2022/11/16 06:16:17;;;;;;;15.15;12.35;;;10.70;99.90;;;;;;4913331;29;20044;-60
2022/11/16 06:18:45;;;;;;;16.88;12.15;;;10.70;99.90;;;;;;4912332;29;20067;-60
2022/11/16 06:21:13;;;;;;;16.75;12.07;;;10.70;99.90;;;;;;4914838;29;20040;-61
2022/11/16 06:23:39;;;;;;;15.00;12.25;;;10.70;99.90;;;;;;4913470;29;22574;-60
2022/11/16 06:26:05;;;;;;;14.40;11.85;;;10.70;99.90;;;;;;4918308;28;20059;-61
2022/11/16 06:28:32;;;;;;;17.70;12.57;;;10.70;99.90;;;;;;4913680;29;20044;-60
2022/11/16 06:30:58;;;;;;;14.77;11.20;;;10.70;99.90;;;;;;4891002;29;20142;-61
2022/11/16 06:33:23;;;;;;;15.63;11.80;;;10.70;99.90;;;;;;4912062;29;20517;-61
2022/11/16 06:35:49;;;;;;;16.05;11.18;;;10.70;99.90;;;;;;4909179;29;20048;-60
2022/11/16 06:38:18;;;;;;;14.45;11.48;;;10.70;99.90;;;;;;4912224;29;20809;-61
2022/11/16 06:40:51;;;;;;;17.13;11.68;;;10.70;99.90;;;;;;4919290;29;20052;-60
2022/11/16 06:43:18;;;;;;;14.05;10.75;;;10.70;99.90;;;;;;4908110;29;20044;-61
2022/11/16 06:45:51;;;;;;;12.48;10.55;;;10.70;99.90;;;;;;4904205;29;20130;-60
2022/11/16 06:48:17;;;;;;;;;;;10.70;99.90;;;;;;4912816;29;20115;-60
2022/11/16 06:50:43;;;;;;;13.35;11.18;;;10.70;99.90;;;;;;4911420;29;20013;-61
2022/11/16 06:53:09;;;;;;;15.70;12.65;;;10.70;99.90;;;;;;4911878;29;20051;-60
2022/11/16 06:55:35;;;;;;;15.93;12.68;;;10.70;99.90;;;;;;4896563;29;20048;-61
2022/11/16 06:58:01;;;;;;;18.05;12.75;;;10.70;99.90;;;;;;4898935;29;20192;-60
2022/11/16 07:00:27;;;;;;;16.00;12.05;;;10.70;99.90;;;;;;4894954;29;20170;-60
2022/11/16 07:02:53;;;;;;;13.63;11.55;;;10.80;99.90;;;;;;4910434;29;20047;-60
2022/11/16 07:05:19;;;;;;;15.30;12.07;;;10.80;99.90;;;;;;4909972;29;20155;-60
2022/11/16 07:07:45;;;;;;;17.92;12.38;;;10.80;99.90;;;;;;4914039;29;20044;-60
2022/11/16 07:10:11;;;;;;;15.32;11.70;;;10.80;99.90;;;;;;4911092;29;20047;-61
2022/11/16 07:12:37;;;;;;;13.95;11.05;;;10.70;99.90;;;;;;4909199;29;20052;-61
2022/11/16 07:15:03;;;;;;;14.70;11.77;;;10.80;99.90;;;;;;4893157;29;20059;-59
2022/11/16 07:17:30;;;;;;;14.27;11.68;;;10.80;99.90;;;;;;4912638;29;20086;-61
2022/11/16 07:19:55;;;;;;;12.38;10.60;;;10.80;99.90;;;;;;4912673;29;20210;-60
2022/11/16 07:22:21;;;;;;;14.68;10.35;;;10.80;99.90;;;;;;4917103;29;20134;-61
2022/11/16 07:24:47;;;;;;;13.68;9.95;;;10.80;99.90;;;;;;4887341;29;20063;-61
2022/11/16 07:27:13;;;;;;;11.10;9.60;;;10.80;99.90;;;;;;4914526;29;20070;-60
2022/11/16 07:29:39;;;;;;;10.98;8.80;;;10.80;99.90;;;;;;4913949;29;20046;-61
2022/11/16 07:32:04;;;;;;;11.93;9.73;;;10.80;99.90;;;;;;4916879;29;20075;-61
2022/11/16 07:34:30;;;;;;;9.52;8.55;;;10.80;99.90;;;;;;4889209;29;20047;-61
2022/11/16 07:36:56;;;;;;;14.10;9.65;;;10.80;99.90;;;;;;4910425;29;20055;-61
2022/11/16 07:39:22;;;;;;;11.52;9.88;;;10.80;99.90;;;;;;4909752;29;20040;-61
2022/11/16 07:41:52;;;;;;;11.73;9.55;;;10.80;99.90;;;;;;4912356;29;20044;-60
2022/11/16 07:44:18;;;;;;;12.43;9.70;;;10.80;99.90;;;;;;4913054;29;20040;-60
2022/11/16 07:46:44;;;;;;;12.23;9.55;;;10.80;99.90;;;;;;4913323;29;20095;-60
2022/11/16 07:49:14;;;;;;;12.07;9.48;;;10.80;99.90;;;;;;4912960;29;20051;-60
2022/11/16 07:51:40;;;;;;;13.18;10.35;;;10.80;99.90;;;;;;4912844;29;21177;-60
2022/11/16 07:54:07;;;;;;;16.73;10.85;;;10.80;99.90;;;;;;4893005;29;20063;-60
2022/11/16 07:56:32;;;;;;;12.38;10.00;;;10.80;99.90;;;;;;4896317;29;20060;-61
2022/11/16 07:58:58;;;;;;;12.70;10.18;;;10.80;99.90;;;;;;4912203;29;20055;-61
2022/11/16 08:01:24;;;;;;;14.75;11.02;;;10.80;99.90;;;;;;4910491;29;20092;-60
2022/11/16 08:03:52;;;;;;;13.05;9.57;;;10.80;99.90;;;;;;4902029;29;20051;-61
2022/11/16 08:06:23;;;;;;;11.38;9.98;;;10.80;99.90;;;;;;4912103;29;20114;-61
2022/11/16 08:08:49;;;;;;;12.00;10.05;;;10.80;99.90;;;;;;4914535;29;20047;-60
2022/11/16 08:11:15;;;;;;;13.40;9.93;;;10.80;99.90;;;;;;4909506;29;20051;-60
2022/11/16 08:13:41;;;;;;;11.75;9.32;;;10.70;99.90;;;;;;4907355;29;20157;-60
2022/11/16 08:16:25;;;;;;;11.55;8.98;;;10.80;99.90;;;;;;4894085;29;20490;-61
2022/11/16 08:18:51;;;;;;;13.15;9.80;;;10.80;99.90;;;;;;4908696;29;20044;-61
2022/11/16 08:21:18;;;;;;;12.18;10.15;;;10.80;99.90;;;;;;4879088;29;20059;-60
2022/11/16 08:23:45;;;;;;;12.77;9.43;;;10.80;99.90;;;;;;4909204;29;20371;-60
2022/11/16 08:26:14;;;;;;;13.73;9.75;;;10.80;99.90;;;;;;4909335;29;20059;-60
2022/11/16 08:28:42;;;;;;;12.70;10.35;;;10.80;99.90;;;;;;4910167;29;20127;-61
2022/11/16 08:31:11;;;;;;;13.52;10.50;;;10.80;99.90;;;;;;4905650;29;20060;-60
2022/11/16 08:33:37;;;;;;;13.88;10.65;;;10.80;99.90;;;;;;4909591;29;20064;-60
2022/11/16 08:36:05;;;;;;;13.25;10.95;;;10.80;99.90;;;;;;4909248;29;20043;-61
2022/11/16 08:38:31;;;;;;;12.65;10.43;;;10.80;99.90;;;;;;4906111;29;20044;-60
2022/11/16 08:40:57;;;;;;;15.05;10.88;;;10.80;99.90;;;;;;4906716;29;20193;-61
2022/11/16 08:43:23;;;;;;;14.20;10.93;;;10.80;99.90;;;;;;4907629;29;20036;-59
2022/11/16 08:45:48;;;;;;;15.55;11.13;;;10.80;99.90;;;;;;4900884;29;20055;-61
2022/11/16 08:48:14;;;;;;;13.57;10.88;;;10.80;99.90;;;;;;4906012;29;20055;-61
2022/11/16 08:50:40;;;;;;;12.57;10.85;;;10.80;99.90;;;;;;4895411;29;20055;-61
2022/11/16 08:53:06;;;;;;;14.65;11.05;;;10.80;99.90;;;;;;4911615;29;20048;-61
2022/11/16 08:55:32;;;;;;;13.20;11.32;;;10.80;99.90;;;;;;4897158;29;20458;-61
2022/11/16 08:57:58;;;;;;;13.70;10.68;;;10.80;99.90;;;;;;4910277;29;20099;-60
2022/11/16 09:00:24;;;;;;;15.88;11.85;;;10.80;99.90;;;;;;4910243;29;20051;-61
2022/11/16 09:02:50;;;;;;;12.57;11.13;;;10.80;99.90;;;;;;4909478;29;20091;-61
2022/11/16 09:05:16;;;;;;;16.02;11.80;;;10.80;99.90;;;;;;4907884;29;20115;-61
2022/11/16 09:07:44;;;;;;;13.05;11.13;;;10.90;99.90;;;;;;4910285;29;20555;-60
2022/11/16 09:10:11;;;;;;;15.68;11.77;;;10.90;99.90;;;;;;4913574;29;20076;-61
2022/11/16 09:12:37;;;;;;;16.50;11.68;;;10.80;99.90;;;;;;4910530;29;20050;-60
2022/11/16 09:15:05;;;;;;;17.50;12.40;;;10.90;99.90;;;;;;4913012;29;20047;-60
2022/11/16 09:17:31;;;;;;;17.48;12.13;;;10.90;99.90;;;;;;4896005;29;20052;-61
2022/11/16 09:19:57;;;;;;;13.52;11.23;;;10.90;99.90;;;;;;4909960;29;20059;-60
2022/11/16 09:22:23;;;;;;;14.40;11.75;;;10.90;99.90;;;;;;4913337;29;20047;-61
2022/11/16 09:24:49;;;;;;;13.52;11.40;;;11.00;99.90;;;;;;4913845;29;20044;-61
2022/11/16 09:27:15;;;;;;;14.98;12.23;;;11.00;99.90;;;;;;4914893;29;20138;-60
2022/11/16 09:29:41;;;;;;;19.98;11.88;;;11.00;99.90;;;;;;4913338;29;20097;-60
2022/11/16 09:32:07;;;;;;;15.57;11.63;;;11.10;99.90;;;;;;4910211;29;20048;-60
2022/11/16 09:34:34;;;;;;;17.60;11.77;;;11.10;99.90;;;;;;4912451;29;20091;-60
2022/11/16 09:37:00;;;;;;;14.45;11.48;;;11.10;99.90;;;;;;4900621;29;20047;-61
2022/11/16 09:39:26;;;;;;;15.05;11.60;;;11.10;99.90;;;;;;4897867;29;20509;-61
2022/11/16 09:42:07;;;;;;;14.13;11.43;;;11.10;99.90;;;;;;4903266;29;20554;-61
2022/11/16 09:45:11;;;;;;;15.85;11.95;;;11.20;99.90;;;;;;4914602;29;20058;-61
2022/11/16 09:47:56;;;;;;;13.63;11.00;;;11.20;99.90;;;;;;4902570;29;20059;-61
2022/11/16 09:50:34;;;;;;;15.55;10.98;;;11.20;99.90;;;;;;4913698;29;20091;-61
2022/11/16 09:53:41;;;;;;;17.38;10.73;;;11.20;99.90;;;;;;4913297;29;20046;-61
2022/11/16 09:56:17;;;;;;;11.20;9.25;;;11.20;99.90;;;;;;4896403;29;20080;-61
2022/11/16 09:59:08;;;;;;;16.05;9.30;;;11.20;99.90;;;;;;4912469;29;20051;-61
2022/11/16 10:01:49;;;;;;;14.18;8.80;;;11.20;99.90;;;;;;4912672;29;20439;-61
2022/11/16 10:04:42;;;;;;;12.30;8.98;;;11.30;99.90;;;;;;4895535;29;20566;-61
2022/11/16 10:07:26;;;;;;;10.13;8.20;;;11.30;99.90;;;;;;4896627;29;21340;-61
2022/11/16 10:09:54;;;;;;;11.15;9.05;;;11.30;99.90;;;;;;4913595;29;20072;-59
2022/11/16 10:12:42;;;;;;;13.30;10.52;;;11.40;99.90;;;;;;4914111;29;20150;-61
2022/11/16 10:15:39;;;;;;;11.88;9.65;;;11.50;99.90;;;;;;4904485;29;20122;-61
2022/11/16 10:18:17;;;;;;;12.82;10.68;;;11.50;99.90;;;;;;4914374;29;20062;-61
2022/11/16 10:20:53;;;;;;;13.90;11.10;;;11.50;99.90;;;;;;4911799;29;20416;-61
2022/11/16 10:23:48;;;;;;;13.10;10.27;;;11.60;99.90;;;;;;4913081;29;20608;-61
2022/11/16 10:26:23;;;;;;;11.45;10.02;;;11.60;99.90;;;;;;4910294;29;21584;-61
2022/11/16 10:29:09;;;;;;;12.48;9.75;;;11.60;99.90;;;;;;4910365;29;20059;-61
2022/11/16 10:32:08;;;;;;;13.45;9.90;;;11.70;99.90;;;;;;4908436;29;20499;-60
2022/11/16 10:34:48;;;;;;;12.10;9.20;;;11.70;99.90;;;;;;4912372;29;20122;-61
2022/11/16 10:37:14;;;;;;;12.07;9.50;;;11.70;99.90;;;;;;4913066;29;20148;-61
2022/11/16 10:39:41;;;;;;;10.32;9.23;;;11.70;99.90;;;;;;4914029;29;21450;-61
2022/11/16 10:42:31;;;;;;;13.07;9.95;;;11.70;99.90;;;;;;4913700;29;20507;-60
2022/11/16 10:45:22;;;;;;;13.73;10.30;;;11.70;99.90;;;;;;4912722;29;20044;-61
2022/11/16 10:48:05;;;;;;;12.20;9.95;;;11.70;99.90;;;;;;4914311;29;20075;-60
2022/11/16 10:50:42;;;;;;;13.93;10.18;;;11.70;99.90;;;;;;4914843;29;20396;-61
2022/11/16 10:53:13;;;;;;;16.92;11.32;;;11.70;99.90;;;;;;4913447;29;20639;-60
2022/11/16 10:55:38;;;;;;;19.98;11.85;;;11.70;99.90;;;;;;4909027;29;20074;-61
2022/11/16 10:58:05;;;;;;;16.45;11.20;;;11.70;99.90;;;;;;4912149;29;20610;-61
2022/11/16 11:00:38;;;;;;;17.30;11.25;;;11.70;99.90;;;;;;4893167;29;20818;-61
2022/11/16 11:03:04;;;;;;;17.90;11.35;;;11.80;99.90;;;;;;4907946;29;20143;-62
2022/11/16 11:05:31;;;;;;;16.65;12.35;;;11.80;99.90;;;;;;4914421;29;20044;-62
2022/11/16 11:08:08;;;;;;;16.80;11.23;;;12.00;99.90;;;;;;4914190;29;20553;-59
2022/11/16 11:10:40;;;;;;;14.95;11.07;;;12.10;99.90;;;;;;4914360;29;20419;-61
2022/11/16 11:13:12;;;;;;;17.20;10.75;;;12.30;99.90;;;;;;4914776;29;20122;-61
2022/11/16 11:15:40;;;;;;;16.13;10.35;;;12.40;99.90;;;;;;4915236;29;20063;-61
2022/11/16 11:18:18;;;;;;;19.23;11.45;;;12.50;99.90;;;;;;4914149;29;20048;-61
2022/11/16 11:20:50;;;;;;;17.65;10.27;;;12.50;99.90;;;;;;4913655;29;20404;-60
2022/11/16 11:23:17;;;;;;;;;;;12.50;99.90;;;;;;4913220;29;20052;-61
2022/11/16 11:25:55;;;;;;;12.60;8.93;;;12.60;99.90;;;;;;4905135;29;19930;-61
2022/11/16 11:28:30;;;;;;;19.42;9.77;;;12.60;99.90;;;;;;4915007;29;20448;-61
2022/11/16 11:30:59;;;;;;;15.40;8.57;;;12.70;99.90;;;;;;4914556;29;20044;-61
2022/11/16 11:33:31;;;;;;;13.25;8.25;;;12.80;99.90;;;;;;4914674;29;20051;-61
2022/11/16 11:36:19;;;;;;;11.55;7.13;;;12.90;99.90;;;;;;4914278;29;20380;-61
2022/11/16 11:38:55;;;;;;;11.93;7.55;;;12.90;99.90;;;;;;4913794;29;20117;-62
2022/11/16 11:41:21;;;;;;;12.35;8.05;;;12.90;99.90;;;;;;4914858;29;20075;-61
2022/11/16 11:44:05;;;;;;;11.30;8.10;;;12.70;99.90;;;;;;4913224;29;20135;-61
2022/11/16 11:46:36;;;;;;;14.70;8.00;;;12.70;99.90;;;;;;4915204;29;20051;-62
2022/11/16 11:49:30;;;;;;;10.95;6.93;;;12.70;99.90;;;;;;4913884;29;20494;-61
2022/11/16 11:52:04;;;;;;;11.20;7.45;;;12.70;99.90;;;;;;4914097;29;20471;-62
2022/11/16 11:54:37;;;;;;;12.95;7.50;;;12.60;99.90;;;;;;4915131;29;20047;-61
2022/11/16 11:57:09;;;;;;;12.60;7.25;;;12.60;99.90;;;;;;4914083;29;20048;-60
2022/11/16 11:59:34;;;;;;;11.95;7.32;;;12.60;99.90;;;;;;4898420;29;20067;-61
2022/11/16 12:02:51;;;;;;;11.98;6.53;;;12.50;99.90;;;;;;4890393;29;20048;-61
2022/11/16 12:05:42;;;;;;;10.30;6.50;;;12.50;99.90;;;;;;4911973;29;20124;-61
2022/11/16 12:08:17;;;;;;;15.52;6.85;;;12.50;99.90;;;;;;4891841;29;20059;-61
2022/11/16 12:11:07;;;;;;;12.30;6.93;;;12.50;99.90;;;;;;4914456;29;20044;-62
2022/11/16 12:13:35;;;;;;;18.70;7.30;;;12.60;99.90;;;;;;4913432;29;20047;-62
2022/11/16 12:16:32;;;;;;;9.95;6.90;;;12.70;99.90;;;;;;4914955;29;20050;-62
2022/11/16 12:19:19;;;;;;;13.55;6.85;;;12.90;99.90;;;;;;4914122;29;20377;-62
2022/11/16 12:22:12;;;;;;;15.57;7.70;;;13.00;99.90;;;;;;4914415;29;20139;-62
2022/11/16 12:24:38;;;;;;;;;;;13.20;99.90;;;;;;4914702;29;20070;-62
2022/11/16 12:27:29;;;;;;;11.73;6.50;;;13.30;99.90;;;;;;4913730;29;20002;-62
2022/11/16 12:30:06;;;;;;;9.98;5.55;;;13.40;99.90;;;;;;4913447;29;20059;-61
2022/11/16 12:33:22;;;;;;;8.13;3.95;;;13.60;99.90;;;;;;4914100;29;20087;-62
2022/11/16 12:35:57;;;;;;;10.73;3.60;;;13.90;99.90;;;;;;4883832;29;20144;-62
2022/11/16 12:38:39;;;;;;;10.13;2.78;;;13.90;99.90;;;;;;4884696;29;20155;-62
2022/11/16 12:41:30;;;;;;;6.47;2.83;;;13.90;99.90;;;;;;4906284;29;20384;-61
2022/11/16 12:44:05;;;;;;;8.77;3.05;;;13.70;99.90;;;;;;4919202;29;20184;-61
2022/11/16 12:46:55;;;;;;;7.55;2.70;;;13.60;99.90;;;;;;4917768;29;20043;-62
2022/11/16 12:49:30;;;;;;;6.82;2.60;;;13.50;99.90;;;;;;4918359;29;20134;-61
2022/11/16 12:52:05;;;;;;;8.90;3.15;;;13.40;99.90;;;;;;4916290;29;20079;-60
2022/11/16 12:54:40;;;;;;;8.90;2.95;;;13.30;99.90;;;;;;4917897;29;20369;-61
2022/11/16 12:57:24;;;;;;;10.40;2.83;;;13.30;99.90;;;;;;4914446;29;20107;-62
2022/11/16 13:00:06;;;;;;;10.05;2.63;;;13.30;99.90;;;;;;4917816;29;20064;-57
2022/11/16 13:02:53;;;;;;;13.43;3.10;;;13.30;99.90;;;;;;4918429;29;20056;-59
2022/11/16 13:05:27;;;;;;;7.22;3.08;;;13.50;99.90;;;;;;4919279;29;20047;-57
2022/11/16 13:08:02;;;;;;;6.78;2.70;;;13.60;99.90;;;;;;4918828;29;20110;-57
2022/11/16 13:10:35;;;;;;;10.98;3.22;;;13.70;99.90;;;;;;4919576;29;20044;-58
2022/11/16 13:13:09;;;;;;;5.72;2.70;;;13.80;99.90;;;;;;4918273;29;20054;-58
2022/11/16 13:15:39;;;;;;;10.45;2.75;;;13.70;99.90;;;;;;4902765;29;20841;-59
2022/11/16 13:18:10;;;;;;;11.80;2.95;;;13.60;99.90;;;;;;4919264;29;20055;-57
2022/11/16 13:20:52;;;;;;;7.20;2.63;;;13.50;99.90;;;;;;4919051;29;20044;-58
2022/11/16 13:23:51;;;;;;;8.50;2.28;;;13.40;99.90;;;;;;4917203;29;20047;-57
2022/11/16 13:26:20;;;;;;;7.78;2.45;;;13.30;99.90;;;;;;4909303;29;20052;-59
2022/11/16 13:29:29;;;;;;;7.38;2.53;;;13.20;99.90;;;;;;4919464;29;21207;-58
2022/11/16 13:32:13;;;;;;;7.50;2.20;;;13.20;99.90;;;;;;4903811;29;20612;-59
2022/11/16 13:34:39;;;;;;;7.03;2.30;;;13.20;99.90;;;;;;4917214;29;20050;-57
2022/11/16 13:37:36;;;;;;;8.15;2.80;;;13.20;99.90;;;;;;4917506;29;20455;-59